Time;durP1;ratioP1;P1;durP2;ratioP2;P2;SDS_P1;SDS_P2;PMS_P1;PMS_P2;Temp;Humidity;BMP_temperature;BMP_pressure;BME280_temperature;BME280_humidity;BME280_pressure;Samples;Min_cycle;Max_cycle;Signal;HPM_P1;HPM_P2
2022/12/25 00:03:48;;;;;;;13.47;3.80;;;;;;;;;;8274470;28;20030;-76
2022/12/25 00:07:48;;;;;;;11.82;3.60;;;;;;;;;;8275056;28;21184;-76
2022/12/25 00:11:48;;;;;;;8.05;2.85;;;;;;;;;;8274356;28;20048;-76
2022/12/25 00:15:48;;;;;;;10.55;2.95;;;;;;;;;;8281193;28;20034;-76
2022/12/25 00:19:49;;;;;;;8.90;2.90;;;;;;;;;;8274950;28;20029;-76
2022/12/25 00:23:56;;;;;;;7.90;3.15;;;;;;;;;;8276154;28;20026;-76
2022/12/25 00:27:56;;;;;;;8.73;3.22;;;;;;;;;;8274964;28;20037;-76
2022/12/25 00:31:57;;;;;;;11.43;3.05;;;;;;;;;;8271211;28;20144;-76
2022/12/25 00:35:58;;;;;;;11.38;2.78;;;;;;;;;;8272319;28;20033;-76
2022/12/25 00:39:58;;;;;;;12.50;2.83;;;;;;;;;;8273877;28;20029;-76
2022/12/25 00:43:58;;;;;;;6.95;2.95;;;;;;;;;;8273397;28;20029;-76
2022/12/25 00:47:58;;;;;;;10.75;2.90;;;;;;;;;;8272590;28;20112;-76
2022/12/25 00:51:58;;;;;;;10.40;3.00;;;;;;;;;;8272486;28;21172;-76
2022/12/25 00:56:00;;;;;;;11.63;2.70;;;;;;;;;;8270366;28;20026;-77
2022/12/25 01:00:00;;;;;;;13.70;2.70;;;;;;;;;;8273410;28;20030;-76
2022/12/25 01:04:01;;;;;;;11.55;2.80;;;;;;;;;;8271262;28;20041;-76
2022/12/25 01:08:01;;;;;;;9.65;2.65;;;;;;;;;;8272355;28;20135;-76
2022/12/25 01:12:01;;;;;;;11.77;2.53;;;;;;;;;;8270119;28;20025;-77
2022/12/25 01:16:05;;;;;;;11.88;3.17;;;;;;;;;;8269046;28;20040;-76
2022/12/25 01:20:06;;;;;;;10.25;2.42;;;;;;;;;;8271701;28;20136;-76
2022/12/25 01:24:06;;;;;;;11.43;2.58;;;;;;;;;;8272248;28;20818;-76
2022/12/25 01:28:06;;;;;;;11.52;2.30;;;;;;;;;;8278943;28;20505;-76
2022/12/25 01:32:07;;;;;;;6.65;2.20;;;;;;;;;;8271273;28;20038;-76
2022/12/25 01:36:26;;;;;;;6.28;2.00;;;;;;;;;;8270898;28;20060;-77
2022/12/25 01:40:26;;;;;;;8.20;1.90;;;;;;;;;;8270316;28;20026;-76
2022/12/25 01:44:35;;;;;;;5.15;2.03;;;;;;;;;;8278352;28;20037;-76
2022/12/25 01:48:37;;;;;;;3.22;1.75;;;;;;;;;;8267963;28;20064;-76
2022/12/25 01:52:37;;;;;;;7.75;2.28;;;;;;;;;;8271688;28;20161;-76
2022/12/25 01:56:38;;;;;;;9.02;4.22;;;;;;;;;;8270672;28;20057;-76
2022/12/25 02:00:39;;;;;;;13.48;3.75;;;;;;;;;;8271863;28;20069;-76
2022/12/25 02:04:41;;;;;;;33.97;13.83;;;;;;;;;;8272524;28;20026;-76
2022/12/25 02:08:42;;;;;;;22.55;9.63;;;;;;;;;;8268864;28;20037;-76
2022/12/25 02:12:43;;;;;;;11.05;4.32;;;;;;;;;;8269857;28;20471;-76
2022/12/25 02:16:45;;;;;;;8.60;2.35;;;;;;;;;;8268885;28;20042;-76
2022/12/25 02:21:04;;;;;;;12.23;2.50;;;;;;;;;;8272750;28;20041;-76
2022/12/25 02:25:07;;;;;;;6.65;2.30;;;;;;;;;;8271280;28;20096;-76
2022/12/25 02:29:24;;;;;;;10.00;2.28;;;;;;;;;;8275402;28;20033;-76
2022/12/25 02:38:00;;;;;;;8.15;2.20;;;;;;;;;;8277732;28;20821;-76
2022/12/25 02:42:03;;;;;;;11.27;2.25;;;;;;;;;;8276064;28;20116;-76
2022/12/25 03:07:49;;;;;;;51.75;4.13;;;;;;;;;;8274229;28;20033;-76
2022/12/25 03:11:53;;;;;;;207.73;8.35;;;;;;;;;;8275767;28;20026;-75
2022/12/25 03:28:50;;;;;;;43.88;3.60;;;;;;;;;;8277497;28;20775;-76
2022/12/25 03:32:50;;;;;;;14.80;3.05;;;;;;;;;;8275077;28;20042;-76
2022/12/25 04:37:42;;;;;;;13.45;3.88;;;;;;;;;;8273252;28;20072;-76
2022/12/25 04:41:42;;;;;;;13.95;3.65;;;;;;;;;;8271204;28;20034;-76
2022/12/25 04:45:50;;;;;;;12.05;3.53;;;;;;;;;;8273329;28;20033;-76
2022/12/25 04:49:50;;;;;;;13.95;3.58;;;;;;;;;;8271705;28;20026;-76
2022/12/25 04:53:51;;;;;;;293.73;10.30;;;;;;;;;;8270151;28;20451;-76
2022/12/25 04:57:51;;;;;;;433.35;13.73;;;;;;;;;;8271537;28;20040;-76
2022/12/25 05:01:51;;;;;;;524.67;15.88;;;;;;;;;;8271594;28;20071;-75
2022/12/25 05:05:52;;;;;;;535.47;15.38;;;;;;;;;;8278027;28;20032;-76
2022/12/25 05:09:52;;;;;;;365.67;12.15;;;;;;;;;;8272292;28;20490;-76
2022/12/25 05:13:52;;;;;;;449.50;13.93;;;;;;;;;;8272057;28;20025;-76
2022/12/25 05:17:52;;;;;;;297.50;11.93;;;;;;;;;;8269954;28;20591;-76
2022/12/25 05:21:53;;;;;;;401.25;14.07;;;;;;;;;;8273775;28;20021;-76
2022/12/25 05:25:53;;;;;;;499.30;15.50;;;;;;;;;;8271595;28;20116;-76
2022/12/25 05:29:53;;;;;;;193.82;8.60;;;;;;;;;;8272404;28;20107;-76
2022/12/25 05:33:53;;;;;;;590.58;17.88;;;;;;;;;;8270056;28;20038;-75
2022/12/25 05:37:53;;;;;;;506.85;16.10;;;;;;;;;;8271244;28;20037;-76
2022/12/25 05:41:53;;;;;;;70.25;6.15;;;;;;;;;;8271729;28;20026;-76
2022/12/25 05:45:54;;;;;;;483.33;15.00;;;;;;;;;;8271750;28;20034;-75
2022/12/25 05:49:54;;;;;;;320.50;11.50;;;;;;;;;;8276893;28;20148;-76
2022/12/25 05:53:54;;;;;;;277.63;10.43;;;;;;;;;;8272683;28;20028;-76
2022/12/25 05:57:54;;;;;;;493.23;16.40;;;;;;;;;;8272734;28;20060;-76
2022/12/25 06:01:55;;;;;;;373.17;13.20;;;;;;;;;;8272292;28;20042;-75
2022/12/25 06:05:55;;;;;;;145.25;8.77;;;;;;;;;;8276232;28;20368;-76
2022/12/25 06:09:55;;;;;;;216.75;10.23;;;;;;;;;;8276166;28;20032;-75
2022/12/25 06:13:55;;;;;;;362.88;13.07;;;;;;;;;;8278857;28;20073;-75
2022/12/25 06:17:58;;;;;;;178.38;9.80;;;;;;;;;;8277003;28;20453;-75
2022/12/25 06:21:58;;;;;;;302.55;11.95;;;;;;;;;;8276774;28;20655;-75
2022/12/25 06:25:59;;;;;;;19.87;6.17;;;;;;;;;;8275130;28;20457;-76
2022/12/25 06:29:59;;;;;;;8.80;4.25;;;;;;;;;;8276619;28;20264;-75
2022/12/25 06:33:59;;;;;;;10.52;5.38;;;;;;;;;;8275358;28;20125;-75
2022/12/25 06:38:00;;;;;;;26.90;12.77;;;;;;;;;;8273394;28;20029;-75
2022/12/25 06:42:00;;;;;;;23.90;11.52;;;;;;;;;;8275331;28;20065;-76
2022/12/25 06:46:04;;;;;;;14.30;6.85;;;;;;;;;;8274551;28;20033;-75
2022/12/25 06:50:05;;;;;;;10.50;3.90;;;;;;;;;;8277170;28;20105;-76
2022/12/25 06:54:05;;;;;;;8.70;4.18;;;;;;;;;;8276434;28;20060;-75
2022/12/25 06:58:05;;;;;;;9.35;4.55;;;;;;;;;;8289966;28;20056;-76
2022/12/25 07:02:13;;;;;;;8.55;4.03;;;;;;;;;;8274800;28;20148;-76
2022/12/25 07:06:14;;;;;;;8.02;3.80;;;;;;;;;;8276118;28;20030;-75
2022/12/25 07:10:15;;;;;;;131.55;8.30;;;;;;;;;;8277522;28;20923;-75
2022/12/25 07:14:17;;;;;;;246.70;11.82;;;;;;;;;;8282989;28;20028;-75
2022/12/25 07:18:17;;;;;;;692.35;23.77;;;;;;;;;;8274988;28;20717;-76
2022/12/25 07:22:17;;;;;;;541.38;18.65;;;;;;;;;;8282455;28;20040;-76
2022/12/25 07:26:17;;;;;;;257.50;10.82;;;;;;;;;;8274678;28;20024;-76
2022/12/25 07:30:18;;;;;;;163.83;8.30;;;;;;;;;;8276178;28;20022;-75
2022/12/25 07:34:18;;;;;;;247.53;10.67;;;;;;;;;;8276650;28;20284;-76
2022/12/25 07:38:18;;;;;;;82.28;7.80;;;;;;;;;;8273198;28;20049;-75
2022/12/25 07:42:18;;;;;;;22.35;6.85;;;;;;;;;;8274111;28;20486;-75
2022/12/25 07:46:21;;;;;;;26.08;7.65;;;;;;;;;;8274180;28;20049;-75
2022/12/25 07:50:21;;;;;;;12.57;7.20;;;;;;;;;;8272897;28;20032;-75
2022/12/25 07:54:21;;;;;;;20.30;7.30;;;;;;;;;;8271014;28;20026;-75
2022/12/25 07:58:22;;;;;;;22.02;7.80;;;;;;;;;;8274405;28;20337;-75
2022/12/25 08:02:27;;;;;;;17.57;7.90;;;;;;;;;;8272959;28;20050;-75
2022/12/25 08:06:32;;;;;;;45.70;8.70;;;;;;;;;;8273572;28;20275;-75
2022/12/25 08:10:32;;;;;;;29.95;8.63;;;;;;;;;;8274607;28;20542;-76
2022/12/25 08:14:32;;;;;;;41.58;9.45;;;;;;;;;;8273113;28;20076;-75
2022/12/25 08:18:33;;;;;;;74.40;9.93;;;;;;;;;;8271386;28;20034;-75
2022/12/25 08:22:33;;;;;;;30.50;10.13;;;;;;;;;;8272877;28;20453;-75
2022/12/25 08:26:33;;;;;;;27.08;11.63;;;;;;;;;;8273997;28;20025;-76
2022/12/25 08:30:33;;;;;;;15.90;8.85;;;;;;;;;;8268722;28;20038;-75
2022/12/25 08:34:34;;;;;;;12.52;8.15;;;;;;;;;;8272648;28;20033;-75
2022/12/25 08:38:34;;;;;;;28.30;14.15;;;;;;;;;;8274164;28;20278;-76
2022/12/25 08:42:34;;;;;;;13.60;9.50;;;;;;;;;;8274741;28;20025;-75
2022/12/25 08:46:35;;;;;;;16.85;9.93;;;;;;;;;;8274381;28;20033;-75
2022/12/25 08:50:35;;;;;;;13.73;9.75;;;;;;;;;;8275799;28;20036;-76
2022/12/25 08:54:35;;;;;;;14.95;8.23;;;;;;;;;;8289097;28;20034;-74
2022/12/25 08:58:36;;;;;;;15.20;8.88;;;;;;;;;;8272163;28;20788;-74
2022/12/25 09:02:37;;;;;;;13.52;8.40;;;;;;;;;;8273364;28;20041;-74
2022/12/25 09:06:38;;;;;;;17.00;8.85;;;;;;;;;;8274269;28;20191;-74
2022/12/25 09:10:38;;;;;;;13.75;8.10;;;;;;;;;;8274037;28;20022;-74
2022/12/25 09:14:38;;;;;;;14.35;8.40;;;;;;;;;;8273843;28;20038;-75
2022/12/25 09:18:38;;;;;;;14.98;8.10;;;;;;;;;;8274370;28;20065;-75
2022/12/25 09:22:38;;;;;;;9.80;7.03;;;;;;;;;;8276310;28;20057;-75
2022/12/25 09:26:39;;;;;;;13.27;7.82;;;;;;;;;;8274116;28;20029;-75
2022/12/25 09:30:39;;;;;;;7.40;6.10;;;;;;;;;;8273847;28;20048;-75
2022/12/25 09:34:39;;;;;;;9.30;6.82;;;;;;;;;;8279523;28;20048;-74
2022/12/25 09:38:39;;;;;;;8.18;5.70;;;;;;;;;;8275966;28;20091;-74
2022/12/25 09:42:40;;;;;;;10.95;6.22;;;;;;;;;;8286526;28;20037;-75
2022/12/25 09:46:42;;;;;;;7.90;6.25;;;;;;;;;;8277322;28;20787;-75
2022/12/25 09:50:45;;;;;;;12.57;6.68;;;;;;;;;;8277032;28;20490;-75
2022/12/25 09:54:52;;;;;;;10.57;7.38;;;;;;;;;;8276645;28;20029;-74
2022/12/25 09:58:53;;;;;;;8.95;6.40;;;;;;;;;;8277339;28;20037;-74
2022/12/25 10:02:53;;;;;;;10.27;8.48;;;;;;;;;;8277271;28;20046;-74
2022/12/25 10:07:06;;;;;;;11.83;8.00;;;;;;;;;;8276620;28;20066;-74
2022/12/25 10:11:15;;;;;;;14.02;8.18;;;;;;;;;;8276207;28;20295;-73
2022/12/25 10:15:23;;;;;;;7.35;5.53;;;;;;;;;;8270076;28;20737;-73
2022/12/25 10:19:29;;;;;;;5.93;4.90;;;;;;;;;;8290447;28;20025;-73
2022/12/25 10:23:29;;;;;;;8.82;4.32;;;;;;;;;;8274622;28;20033;-73
2022/12/25 10:27:36;;;;;;;6.15;4.75;;;;;;;;;;8270988;28;20569;-73
2022/12/25 10:31:36;;;;;;;6.82;4.03;;;;;;;;;;8272770;28;20048;-74
2022/12/25 10:35:37;;;;;;;9.88;5.32;;;;;;;;;;8274922;28;20030;-74
2022/12/25 10:39:37;;;;;;;14.23;8.27;;;;;;;;;;8274543;28;20684;-74
2022/12/25 10:43:41;;;;;;;45.75;20.88;;;;;;;;;;8274703;28;20029;-74
2022/12/25 10:47:42;;;;;;;;;;;;;;;;;;8268977;28;20061;-74
2022/12/25 10:51:42;;;;;;;11.48;6.90;;;;;;;;;;8275452;28;19920;-75
2022/12/25 10:55:52;;;;;;;11.23;6.88;;;;;;;;;;8274949;28;20762;-75
2022/12/25 10:59:56;;;;;;;5.15;3.67;;;;;;;;;;8275598;28;20029;-75
2022/12/25 11:03:56;;;;;;;4.07;2.58;;;;;;;;;;8273971;28;20064;-75
2022/12/25 11:07:58;;;;;;;2.17;1.97;;;;;;;;;;8272814;28;20113;-76
2022/12/25 11:11:59;;;;;;;2.47;2.17;;;;;;;;;;8274419;28;20288;-75
2022/12/25 11:16:02;;;;;;;6.28;2.03;;;;;;;;;;8274533;28;20564;-75
2022/12/25 11:20:15;;;;;;;3.15;1.85;;;;;;;;;;8273776;28;20034;-76
2022/12/25 11:24:20;;;;;;;3.65;2.50;;;;;;;;;;8275700;28;20690;-75
2022/12/25 11:28:20;;;;;;;5.30;2.95;;;;;;;;;;8287851;28;20068;-76
2022/12/25 11:32:20;;;;;;;4.30;3.00;;;;;;;;;;8272679;28;20033;-75
2022/12/25 11:36:39;;;;;;;3.85;3.10;;;;;;;;;;8273466;28;20026;-75
2022/12/25 11:40:50;;;;;;;5.57;3.20;;;;;;;;;;8274005;28;20021;-75
2022/12/25 11:44:51;;;;;;;5.68;5.10;;;;;;;;;;8273786;28;20144;-75
2022/12/25 11:48:57;;;;;;;5.05;4.03;;;;;;;;;;8274217;28;20115;-75
2022/12/25 11:52:59;;;;;;;6.03;3.97;;;;;;;;;;8268670;28;20486;-74
2022/12/25 11:57:02;;;;;;;7.40;4.95;;;;;;;;;;8273034;28;20017;-75
2022/12/25 12:01:08;;;;;;;6.00;4.45;;;;;;;;;;8272293;28;20133;-75
2022/12/25 12:05:16;;;;;;;6.70;4.07;;;;;;;;;;8272005;28;20480;-76
2022/12/25 12:09:37;;;;;;;5.30;3.58;;;;;;;;;;8272577;28;20022;-77
2022/12/25 12:13:42;;;;;;;7.38;4.68;;;;;;;;;;8272181;28;20108;-77
2022/12/25 12:17:43;;;;;;;13.52;7.68;;;;;;;;;;8272979;28;20034;-76
2022/12/25 12:21:47;;;;;;;20.70;11.13;;;;;;;;;;8269406;28;20030;-75
2022/12/25 12:25:48;;;;;;;19.38;8.43;;;;;;;;;;8275369;28;20639;-75
2022/12/25 12:29:50;;;;;;;7.47;4.68;;;;;;;;;;8273081;28;20021;-75
2022/12/25 12:33:56;;;;;;;5.70;3.85;;;;;;;;;;8270752;28;20107;-75
2022/12/25 12:37:59;;;;;;;5.15;3.70;;;;;;;;;;8268006;28;20025;-75
2022/12/25 12:41:59;;;;;;;6.40;3.65;;;;;;;;;;8271520;28;20363;-76
2022/12/25 12:46:22;;;;;;;5.78;3.50;;;;;;;;;;8269949;28;20033;-75
2022/12/25 12:50:26;;;;;;;8.95;3.60;;;;;;;;;;8263897;28;20044;-76
2022/12/25 12:54:26;;;;;;;6.07;3.45;;;;;;;;;;8268158;28;20035;-76
2022/12/25 12:58:34;;;;;;;5.70;3.53;;;;;;;;;;8269988;28;20144;-75
2022/12/25 13:02:53;;;;;;;5.95;3.65;;;;;;;;;;8272212;28;20124;-75
2022/12/25 13:07:12;;;;;;;4.35;3.30;;;;;;;;;;8268983;28;20037;-75
2022/12/25 13:11:21;;;;;;;6.63;3.60;;;;;;;;;;8268319;28;20057;-75
2022/12/25 13:15:23;;;;;;;6.47;3.38;;;;;;;;;;8269489;28;20027;-76
2022/12/25 13:19:25;;;;;;;6.38;3.45;;;;;;;;;;8270518;28;20025;-76
2022/12/25 13:23:27;;;;;;;6.20;3.65;;;;;;;;;;8271291;28;20036;-74
2022/12/25 13:27:29;;;;;;;7.13;4.05;;;;;;;;;;8268093;28;20500;-74
2022/12/25 13:31:29;;;;;;;20.73;11.07;;;;;;;;;;8268872;28;20215;-74
2022/12/25 13:35:29;;;;;;;15.95;9.07;;;;;;;;;;8267836;28;20061;-74
2022/12/25 13:39:30;;;;;;;11.82;7.07;;;;;;;;;;8264580;28;20321;-75
2022/12/25 13:43:30;;;;;;;13.20;7.70;;;;;;;;;;8267677;28;20026;-75
2022/12/25 13:47:35;;;;;;;18.02;10.82;;;;;;;;;;8268012;28;20030;-75
2022/12/25 13:51:36;;;;;;;15.60;10.13;;;;;;;;;;8266744;28;20063;-75
2022/12/25 13:55:36;;;;;;;7.38;4.68;;;;;;;;;;8266752;28;20602;-75
2022/12/25 13:59:37;;;;;;;5.63;4.07;;;;;;;;;;8268350;28;20033;-76
2022/12/25 14:03:41;;;;;;;3.90;3.22;;;;;;;;;;8266352;28;20046;-75
2022/12/25 14:07:41;;;;;;;6.13;3.47;;;;;;;;;;8267405;28;20103;-77
2022/12/25 14:11:44;;;;;;;4.50;2.80;;;;;;;;;;8267828;28;20812;-76
2022/12/25 14:15:46;;;;;;;3.45;2.70;;;;;;;;;;8263675;28;20755;-76
2022/12/25 14:19:54;;;;;;;2.30;2.08;;;;;;;;;;8267856;28;20022;-76
2022/12/25 14:23:55;;;;;;;3.55;2.00;;;;;;;;;;8270183;28;20477;-75
2022/12/25 14:27:55;;;;;;;2.63;2.07;;;;;;;;;;8285355;28;20187;-76
2022/12/25 14:31:56;;;;;;;3.00;2.08;;;;;;;;;;8274362;28;21081;-76
2022/12/25 14:35:57;;;;;;;2.45;1.83;;;;;;;;;;8273423;28;20085;-76
2022/12/25 14:39:59;;;;;;;2.35;1.75;;;;;;;;;;8275169;28;20021;-76
2022/12/25 14:44:01;;;;;;;2.75;1.75;;;;;;;;;;8280148;28;21038;-76
2022/12/25 14:48:13;;;;;;;3.72;2.10;;;;;;;;;;8280764;28;20506;-75
2022/12/25 14:52:21;;;;;;;3.30;1.73;;;;;;;;;;8275959;28;20029;-77
2022/12/25 14:56:22;;;;;;;2.00;1.80;;;;;;;;;;8273379;28;20109;-76
2022/12/25 15:00:28;;;;;;;1.98;1.88;;;;;;;;;;8271510;28;20212;-76
2022/12/25 15:04:29;;;;;;;2.65;1.70;;;;;;;;;;8273177;28;20868;-76
2022/12/25 15:08:29;;;;;;;4.35;1.95;;;;;;;;;;8272514;28;20025;-75
2022/12/25 15:12:30;;;;;;;3.20;1.60;;;;;;;;;;8272936;28;20044;-76
2022/12/25 15:16:33;;;;;;;6.07;1.90;;;;;;;;;;8269635;28;20499;-75
2022/12/25 15:20:33;;;;;;;3.17;1.90;;;;;;;;;;8272968;28;20426;-75
2022/12/25 15:24:34;;;;;;;1.80;1.67;;;;;;;;;;8272685;28;20026;-75
2022/12/25 15:28:34;;;;;;;3.43;1.80;;;;;;;;;;8283177;28;20112;-75
2022/12/25 15:32:34;;;;;;;2.03;1.83;;;;;;;;;;8275444;28;20408;-74
2022/12/25 15:36:34;;;;;;;3.50;1.73;;;;;;;;;;8286499;28;20030;-77
2022/12/25 15:40:35;;;;;;;3.10;1.88;;;;;;;;;;8270816;28;20080;-75
2022/12/25 15:44:35;;;;;;;4.27;1.77;;;;;;;;;;8268462;28;20033;-76
2022/12/25 15:48:35;;;;;;;3.38;1.92;;;;;;;;;;8270546;28;20280;-77
2022/12/25 15:52:35;;;;;;;2.95;1.90;;;;;;;;;;8268971;28;20769;-75
2022/12/25 15:56:41;;;;;;;2.45;1.80;;;;;;;;;;8277563;28;20049;-76
2022/12/25 16:00:41;;;;;;;2.75;1.80;;;;;;;;;;8270315;28;20038;-77
2022/12/25 16:04:41;;;;;;;1.65;1.55;;;;;;;;;;8269930;28;20028;-76
2022/12/25 16:08:42;;;;;;;4.25;1.80;;;;;;;;;;8268138;28;20076;-76
2022/12/25 16:12:43;;;;;;;2.83;1.85;;;;;;;;;;8267235;28;20124;-76
2022/12/25 16:16:43;;;;;;;1.90;1.70;;;;;;;;;;8273917;28;20780;-75
2022/12/25 16:20:43;;;;;;;2.50;1.67;;;;;;;;;;8269173;28;20069;-76
2022/12/25 16:24:45;;;;;;;1.60;1.50;;;;;;;;;;8266685;28;20029;-75
2022/12/25 16:28:45;;;;;;;1.70;1.60;;;;;;;;;;8266434;28;20029;-76
2022/12/25 16:32:47;;;;;;;3.95;1.75;;;;;;;;;;8268920;28;20046;-76
2022/12/25 16:36:47;;;;;;;2.80;1.65;;;;;;;;;;8266959;28;20022;-76
2022/12/25 16:40:53;;;;;;;2.30;1.83;;;;;;;;;;8266982;28;20021;-76
2022/12/25 16:44:53;;;;;;;3.90;1.60;;;;;;;;;;8266452;28;20037;-76
2022/12/25 16:48:54;;;;;;;3.10;2.00;;;;;;;;;;8267653;28;20037;-76
2022/12/25 16:52:54;;;;;;;10.10;7.30;;;;;;;;;;8267512;28;20264;-75
2022/12/25 16:56:54;;;;;;;5.20;2.97;;;;;;;;;;8282543;28;20122;-76
2022/12/25 17:00:54;;;;;;;3.20;2.10;;;;;;;;;;8266113;28;20037;-75
2022/12/25 17:04:54;;;;;;;4.75;3.47;;;;;;;;;;8265426;28;20740;-76
2022/12/25 17:08:57;;;;;;;2.85;2.00;;;;;;;;;;8266811;28;20025;-76
2022/12/25 17:12:57;;;;;;;3.65;2.10;;;;;;;;;;8266634;28;20095;-76
2022/12/25 17:16:57;;;;;;;3.28;1.77;;;;;;;;;;8282411;28;20037;-76
2022/12/25 17:20:57;;;;;;;5.07;1.73;;;;;;;;;;8267059;28;20031;-76
2022/12/25 17:24:58;;;;;;;2.85;1.63;;;;;;;;;;8263724;28;20022;-75
2022/12/25 17:28:58;;;;;;;2.42;1.88;;;;;;;;;;8264918;28;20715;-76
2022/12/25 17:32:59;;;;;;;1.85;1.75;;;;;;;;;;8265503;28;20044;-76
2022/12/25 17:36:59;;;;;;;2.78;2.10;;;;;;;;;;8265250;28;20021;-76
2022/12/25 17:41:00;;;;;;;2.40;2.08;;;;;;;;;;8263209;28;20032;-76
2022/12/25 17:45:00;;;;;;;2.67;2.15;;;;;;;;;;8270974;28;20033;-75
2022/12/25 17:49:01;;;;;;;2.42;2.17;;;;;;;;;;8264974;28;20149;-75
2022/12/25 17:53:03;;;;;;;2.75;2.35;;;;;;;;;;8267029;28;20068;-75
2022/12/25 17:57:03;;;;;;;3.28;2.15;;;;;;;;;;8261520;28;20029;-76
2022/12/25 18:01:08;;;;;;;2.38;2.15;;;;;;;;;;8270486;28;20076;-76
2022/12/25 18:05:08;;;;;;;5.03;2.00;;;;;;;;;;8268488;28;20653;-76
2022/12/25 18:09:10;;;;;;;4.37;2.23;;;;;;;;;;8270806;28;20091;-76
2022/12/25 18:13:10;;;;;;;3.28;2.33;;;;;;;;;;8277857;28;20276;-76
2022/12/25 18:17:10;;;;;;;3.33;2.70;;;;;;;;;;8271248;28;20789;-75
2022/12/25 18:21:11;;;;;;;3.42;2.50;;;;;;;;;;8270342;28;20680;-76
2022/12/25 18:25:12;;;;;;;2.45;2.25;;;;;;;;;;8269539;28;20052;-76
2022/12/25 18:29:13;;;;;;;2.88;2.50;;;;;;;;;;8269802;28;20064;-76
2022/12/25 18:33:13;;;;;;;3.17;2.50;;;;;;;;;;8269255;28;20045;-76
2022/12/25 18:37:13;;;;;;;4.47;2.70;;;;;;;;;;8268093;28;20040;-76
2022/12/25 18:41:14;;;;;;;5.53;2.80;;;;;;;;;;8283963;28;20021;-76
2022/12/25 18:45:14;;;;;;;6.43;2.50;;;;;;;;;;8269004;28;20032;-76
2022/12/25 18:49:15;;;;;;;2.40;2.20;;;;;;;;;;8276150;28;20151;-75
2022/12/25 18:53:15;;;;;;;2.50;2.30;;;;;;;;;;8269562;28;21426;-76
2022/12/25 18:57:15;;;;;;;5.65;2.63;;;;;;;;;;8267009;28;20029;-76
2022/12/25 19:01:17;;;;;;;3.00;2.70;;;;;;;;;;8268343;28;20065;-76
2022/12/25 19:05:17;;;;;;;3.90;2.47;;;;;;;;;;8269277;28;20022;-75
2022/12/25 19:09:17;;;;;;;3.00;2.42;;;;;;;;;;8270236;28;20021;-76
2022/12/25 19:13:18;;;;;;;5.37;3.17;;;;;;;;;;8271735;28;20036;-76
2022/12/25 19:17:18;;;;;;;3.38;2.90;;;;;;;;;;8268241;28;20296;-76
2022/12/25 19:21:18;;;;;;;4.65;2.90;;;;;;;;;;8269563;28;20080;-76
2022/12/25 19:25:19;;;;;;;4.10;2.95;;;;;;;;;;8268928;28;20022;-76
2022/12/25 19:29:19;;;;;;;4.70;2.92;;;;;;;;;;8271521;28;20124;-76
2022/12/25 19:33:20;;;;;;;4.18;3.10;;;;;;;;;;8269071;28;20071;-76
2022/12/25 19:37:20;;;;;;;4.65;3.20;;;;;;;;;;8267268;28;20037;-76
2022/12/25 19:41:21;;;;;;;3.25;2.90;;;;;;;;;;8267883;28;20025;-76
2022/12/25 19:45:21;;;;;;;3.20;2.90;;;;;;;;;;8264609;28;20149;-75
2022/12/25 19:49:21;;;;;;;3.03;2.78;;;;;;;;;;8267096;28;20164;-76
2022/12/25 19:53:24;;;;;;;4.32;3.17;;;;;;;;;;8268585;28;20467;-76
2022/12/25 19:57:25;;;;;;;7.65;3.28;;;;;;;;;;8267473;28;20065;-76
2022/12/25 20:01:26;;;;;;;4.07;3.15;;;;;;;;;;8269153;28;20455;-77
2022/12/25 20:05:27;;;;;;;3.45;3.10;;;;;;;;;;8265912;28;20034;-76
2022/12/25 20:09:29;;;;;;;3.03;2.80;;;;;;;;;;8266065;28;20673;-76
2022/12/25 20:13:29;;;;;;;4.13;3.30;;;;;;;;;;8265178;28;20026;-75
2022/12/25 20:17:29;;;;;;;4.97;3.20;;;;;;;;;;8282116;28;20910;-75
2022/12/25 20:21:30;;;;;;;5.20;3.50;;;;;;;;;;8268653;28;20140;-76
2022/12/25 20:25:30;;;;;;;4.43;2.92;;;;;;;;;;8267424;28;20718;-76
2022/12/25 20:29:30;;;;;;;5.80;3.00;;;;;;;;;;8267550;28;21076;-76
2022/12/25 20:33:31;;;;;;;7.93;3.70;;;;;;;;;;8267223;28;20116;-76
2022/12/25 20:37:32;;;;;;;4.28;3.47;;;;;;;;;;8268941;28;20022;-76
2022/12/25 20:41:32;;;;;;;4.32;3.30;;;;;;;;;;8261156;28;20056;-75
2022/12/25 20:45:32;;;;;;;4.55;3.20;;;;;;;;;;8263758;28;20044;-76
2022/12/25 20:49:33;;;;;;;6.00;3.67;;;;;;;;;;8265592;28;20021;-76
2022/12/25 20:53:33;;;;;;;6.45;3.95;;;;;;;;;;8271523;28;20869;-76
2022/12/25 20:57:34;;;;;;;4.90;4.05;;;;;;;;;;8265595;28;20096;-75
2022/12/25 21:01:34;;;;;;;5.35;3.85;;;;;;;;;;8264368;28;20525;-75
2022/12/25 21:05:35;;;;;;;4.45;3.95;;;;;;;;;;8264153;28;20548;-76
2022/12/25 21:09:35;;;;;;;5.40;3.83;;;;;;;;;;8266534;28;20026;-77
2022/12/25 21:13:39;;;;;;;8.33;4.13;;;;;;;;;;8266416;28;20195;-76
2022/12/25 21:17:39;;;;;;;7.53;4.43;;;;;;;;;;8272735;28;20264;-77
2022/12/25 21:21:41;;;;;;;3.78;3.47;;;;;;;;;;8267655;28;20037;-76
2022/12/25 21:25:42;;;;;;;8.05;3.95;;;;;;;;;;8263486;28;20091;-76
2022/12/25 21:29:42;;;;;;;4.90;3.85;;;;;;;;;;8273051;28;20026;-76
2022/12/25 21:33:51;;;;;;;6.43;4.05;;;;;;;;;;8270283;28;20040;-76
2022/12/25 21:37:51;;;;;;;5.32;4.10;;;;;;;;;;8273072;28;20032;-76
2022/12/25 21:41:51;;;;;;;5.90;4.35;;;;;;;;;;8269887;28;21388;-76
2022/12/25 21:45:52;;;;;;;6.32;3.70;;;;;;;;;;8287889;28;20041;-76
2022/12/25 21:54:11;;;;;;;6.15;4.05;;;;;;;;;;8271261;28;20080;-76
2022/12/25 21:58:11;;;;;;;6.40;4.40;;;;;;;;;;8268401;28;20034;-76
2022/12/25 22:02:12;;;;;;;5.93;3.87;;;;;;;;;;8268628;28;20034;-76
2022/12/25 22:10:31;;;;;;;5.75;4.22;;;;;;;;;;8269744;28;20032;-76
2022/12/25 22:14:49;;;;;;;7.72;3.92;;;;;;;;;;8268720;28;20025;-76
2022/12/25 22:23:08;;;;;;;6.10;4.03;;;;;;;;;;8268358;28;20106;-76
2022/12/25 22:27:08;;;;;;;5.75;3.85;;;;;;;;;;8265331;28;20504;-75
2022/12/25 22:31:08;;;;;;;4.38;3.50;;;;;;;;;;8269797;28;20141;-76
2022/12/25 22:35:10;;;;;;;4.35;3.85;;;;;;;;;;8269276;28;20014;-76
2022/12/25 22:39:11;;;;;;;6.43;3.47;;;;;;;;;;8272120;28;20021;-76
2022/12/25 22:43:11;;;;;;;5.78;4.00;;;;;;;;;;8273003;28;20383;-76
2022/12/25 22:47:11;;;;;;;5.13;3.30;;;;;;;;;;8271843;28;20152;-76
2022/12/25 22:51:11;;;;;;;4.93;3.28;;;;;;;;;;8273537;28;20073;-76
2022/12/25 22:55:14;;;;;;;5.40;3.40;;;;;;;;;;8272005;28;20029;-76
2022/12/25 22:59:17;;;;;;;6.20;3.70;;;;;;;;;;8268920;28;20047;-76
2022/12/25 23:03:17;;;;;;;3.83;3.40;;;;;;;;;;8271399;28;20045;-76
2022/12/25 23:07:18;;;;;;;6.15;3.22;;;;;;;;;;8271896;28;20014;-75
2022/12/25 23:11:19;;;;;;;4.07;3.22;;;;;;;;;;8278038;28;20029;-76
2022/12/25 23:15:19;;;;;;;3.95;3.40;;;;;;;;;;8270698;28;20025;-76
2022/12/25 23:27:57;;;;;;;5.40;3.10;;;;;;;;;;8271619;28;20080;-76
2022/12/25 23:31:57;;;;;;;4.73;3.07;;;;;;;;;;8272186;28;20561;-76
2022/12/25 23:35:58;;;;;;;4.80;3.08;;;;;;;;;;8270992;28;20065;-75
2022/12/25 23:39:58;;;;;;;4.60;2.92;;;;;;;;;;8271672;28;20026;-77
2022/12/25 23:43:58;;;;;;;6.43;2.92;;;;;;;;;;8270446;28;20038;-76
2022/12/25 23:47:58;;;;;;;6.53;3.17;;;;;;;;;;8271552;28;20044;-77
2022/12/25 23:51:58;;;;;;;3.38;2.92;;;;;;;;;;8272699;28;20025;-76
2022/12/25 23:55:59;;;;;;;4.55;3.17;;;;;;;;;;8269464;28;20041;-77
2022/12/25 23:59:59;;;;;;;4.05;2.88;;;;;;;;;;8269451;28;20060;-76
